sensor_id;sensor_type;location;lat;lon;timestamp;P1;durP1;ratioP1;P2;durP2;ratioP2
16531;SDS011;8378;57.698;11.958;2022-09-09T00:02:24;1.00;;;0.90;;
16531;SDS011;8378;57.698;11.958;2022-09-09T00:05:09;0.90;;;0.90;;
16531;SDS011;8378;57.698;11.958;2022-09-09T00:07:48;0.90;;;0.90;;
16531;SDS011;8378;57.698;11.958;2022-09-09T00:10:30;1.00;;;0.90;;
16531;SDS011;8378;57.698;11.958;2022-09-09T00:15:46;1.10;;;0.90;;
16531;SDS011;8378;57.698;11.958;2022-09-09T00:18:45;0.95;;;0.70;;
16531;SDS011;8378;57.698;11.958;2022-09-09T00:21:36;0.60;;;0.60;;
16531;SDS011;8378;57.698;11.958;2022-09-09T00:30:29;1.00;;;0.73;;
16531;SDS011;8378;57.698;11.958;2022-09-09T00:32:49;0.85;;;0.80;;
16531;SDS011;8378;57.698;11.958;2022-09-09T00:35:23;1.27;;;0.88;;
16531;SDS011;8378;57.698;11.958;2022-09-09T00:37:54;1.00;;;0.90;;
16531;SDS011;8378;57.698;11.958;2022-09-09T00:40:33;1.25;;;0.90;;
16531;SDS011;8378;57.698;11.958;2022-09-09T00:48:22;0.90;;;0.90;;
16531;SDS011;8378;57.698;11.958;2022-09-09T00:51:00;2.42;;;0.93;;
16531;SDS011;8378;57.698;11.958;2022-09-09T00:58:43;1.02;;;0.93;;
16531;SDS011;8378;57.698;11.958;2022-09-09T01:01:23;1.52;;;0.70;;
16531;SDS011;8378;57.698;11.958;2022-09-09T01:03:52;0.80;;;0.73;;
16531;SDS011;8378;57.698;11.958;2022-09-09T01:06:26;1.50;;;0.98;;
16531;SDS011;8378;57.698;11.958;2022-09-09T01:22:17;2.22;;;1.00;;
16531;SDS011;8378;57.698;11.958;2022-09-09T01:27:54;0.93;;;0.80;;
16531;SDS011;8378;57.698;11.958;2022-09-09T01:30:23;0.80;;;0.80;;
16531;SDS011;8378;57.698;11.958;2022-09-09T01:32:50;1.10;;;1.00;;
16531;SDS011;8378;57.698;11.958;2022-09-09T01:35:32;0.90;;;0.90;;
16531;SDS011;8378;57.698;11.958;2022-09-09T01:38:19;0.98;;;0.93;;
16531;SDS011;8378;57.698;11.958;2022-09-09T01:40:46;0.80;;;0.80;;
16531;SDS011;8378;57.698;11.958;2022-09-09T01:43:12;0.80;;;0.80;;
16531;SDS011;8378;57.698;11.958;2022-09-09T01:45:39;2.38;;;1.00;;
16531;SDS011;8378;57.698;11.958;2022-09-09T01:48:08;0.77;;;0.77;;
16531;SDS011;8378;57.698;11.958;2022-09-09T01:50:34;1.00;;;0.95;;
16531;SDS011;8378;57.698;11.958;2022-09-09T01:52:59;0.85;;;0.85;;
16531;SDS011;8378;57.698;11.958;2022-09-09T01:55:36;1.40;;;0.93;;
16531;SDS011;8378;57.698;11.958;2022-09-09T02:01:11;0.93;;;0.90;;
16531;SDS011;8378;57.698;11.958;2022-09-09T02:03:47;1.38;;;1.02;;
16531;SDS011;8378;57.698;11.958;2022-09-09T02:06:30;1.17;;;1.00;;
16531;SDS011;8378;57.698;11.958;2022-09-09T02:09:04;2.03;;;1.27;;
16531;SDS011;8378;57.698;11.958;2022-09-09T02:11:32;1.10;;;1.00;;
16531;SDS011;8378;57.698;11.958;2022-09-09T02:14:06;1.20;;;1.00;;
16531;SDS011;8378;57.698;11.958;2022-09-09T02:16:47;1.23;;;1.00;;
16531;SDS011;8378;57.698;11.958;2022-09-09T02:19:25;1.00;;;1.00;;
16531;SDS011;8378;57.698;11.958;2022-09-09T02:21:56;1.02;;;0.93;;
16531;SDS011;8378;57.698;11.958;2022-09-09T02:24:24;0.90;;;0.90;;
16531;SDS011;8378;57.698;11.958;2022-09-09T02:26:51;1.08;;;0.93;;
16531;SDS011;8378;57.698;11.958;2022-09-09T02:29:24;1.10;;;1.00;;
16531;SDS011;8378;57.698;11.958;2022-09-09T02:32:00;1.02;;;0.90;;
16531;SDS011;8378;57.698;11.958;2022-09-09T02:34:29;0.70;;;0.70;;
16531;SDS011;8378;57.698;11.958;2022-09-09T02:36:57;1.00;;;0.90;;
16531;SDS011;8378;57.698;11.958;2022-09-09T02:39:24;1.98;;;1.15;;
16531;SDS011;8378;57.698;11.958;2022-09-09T02:41:50;1.00;;;1.00;;
16531;SDS011;8378;57.698;11.958;2022-09-09T02:44:17;0.85;;;0.75;;
16531;SDS011;8378;57.698;11.958;2022-09-09T02:49:55;0.73;;;0.73;;
16531;SDS011;8378;57.698;11.958;2022-09-09T02:55:20;0.90;;;0.90;;
16531;SDS011;8378;57.698;11.958;2022-09-09T02:57:54;0.95;;;0.95;;
16531;SDS011;8378;57.698;11.958;2022-09-09T03:00:22;1.10;;;1.00;;
16531;SDS011;8378;57.698;11.958;2022-09-09T03:02:50;1.00;;;0.90;;
16531;SDS011;8378;57.698;11.958;2022-09-09T03:05:16;1.35;;;1.00;;
16531;SDS011;8378;57.698;11.958;2022-09-09T03:07:42;1.38;;;1.05;;
16531;SDS011;8378;57.698;11.958;2022-09-09T03:10:07;1.30;;;1.17;;
16531;SDS011;8378;57.698;11.958;2022-09-09T03:12:33;1.20;;;1.10;;
16531;SDS011;8378;57.698;11.958;2022-09-09T03:14:59;1.02;;;0.93;;
16531;SDS011;8378;57.698;11.958;2022-09-09T03:17:24;1.00;;;1.00;;
16531;SDS011;8378;57.698;11.958;2022-09-09T03:19:52;1.40;;;0.95;;
16531;SDS011;8378;57.698;11.958;2022-09-09T03:22:20;1.13;;;0.80;;
16531;SDS011;8378;57.698;11.958;2022-09-09T03:24:46;1.13;;;1.02;;
16531;SDS011;8378;57.698;11.958;2022-09-09T03:27:12;1.85;;;1.10;;
16531;SDS011;8378;57.698;11.958;2022-09-09T03:29:39;0.93;;;0.88;;
16531;SDS011;8378;57.698;11.958;2022-09-09T03:32:05;2.88;;;1.00;;
16531;SDS011;8378;57.698;11.958;2022-09-09T03:34:30;0.90;;;0.90;;
16531;SDS011;8378;57.698;11.958;2022-09-09T03:36:56;1.52;;;1.10;;
16531;SDS011;8378;57.698;11.958;2022-09-09T03:39:22;0.90;;;0.90;;
16531;SDS011;8378;57.698;11.958;2022-09-09T03:41:47;1.63;;;1.15;;
16531;SDS011;8378;57.698;11.958;2022-09-09T03:44:13;1.05;;;0.95;;
16531;SDS011;8378;57.698;11.958;2022-09-09T03:46:39;1.00;;;0.95;;
16531;SDS011;8378;57.698;11.958;2022-09-09T03:49:05;1.65;;;1.15;;
16531;SDS011;8378;57.698;11.958;2022-09-09T03:51:31;0.93;;;0.93;;
16531;SDS011;8378;57.698;11.958;2022-09-09T03:53:56;1.23;;;0.80;;
16531;SDS011;8378;57.698;11.958;2022-09-09T03:56:23;1.67;;;0.98;;
16531;SDS011;8378;57.698;11.958;2022-09-09T03:58:49;1.45;;;1.13;;
16531;SDS011;8378;57.698;11.958;2022-09-09T04:01:15;1.08;;;1.00;;
16531;SDS011;8378;57.698;11.958;2022-09-09T04:03:42;2.05;;;0.95;;
16531;SDS011;8378;57.698;11.958;2022-09-09T04:06:10;2.47;;;1.33;;
16531;SDS011;8378;57.698;11.958;2022-09-09T04:08:37;1.20;;;1.10;;
16531;SDS011;8378;57.698;11.958;2022-09-09T04:11:03;1.20;;;1.10;;
16531;SDS011;8378;57.698;11.958;2022-09-09T04:13:32;1.55;;;1.10;;
16531;SDS011;8378;57.698;11.958;2022-09-09T04:15:59;1.27;;;1.00;;
16531;SDS011;8378;57.698;11.958;2022-09-09T04:18:26;1.05;;;0.93;;
16531;SDS011;8378;57.698;11.958;2022-09-09T04:20:53;1.23;;;1.00;;
16531;SDS011;8378;57.698;11.958;2022-09-09T04:23:22;2.35;;;0.95;;
16531;SDS011;8378;57.698;11.958;2022-09-09T04:25:52;0.80;;;0.80;;
16531;SDS011;8378;57.698;11.958;2022-09-09T04:28:19;1.80;;;1.02;;
16531;SDS011;8378;57.698;11.958;2022-09-09T04:30:46;1.27;;;1.02;;
16531;SDS011;8378;57.698;11.958;2022-09-09T04:33:12;1.58;;;1.00;;
16531;SDS011;8378;57.698;11.958;2022-09-09T04:35:39;1.35;;;1.25;;
16531;SDS011;8378;57.698;11.958;2022-09-09T04:38:11;2.03;;;1.10;;
16531;SDS011;8378;57.698;11.958;2022-09-09T04:40:37;1.48;;;1.27;;
16531;SDS011;8378;57.698;11.958;2022-09-09T04:43:05;1.20;;;1.10;;
16531;SDS011;8378;57.698;11.958;2022-09-09T04:45:31;1.98;;;1.00;;
16531;SDS011;8378;57.698;11.958;2022-09-09T04:47:57;1.60;;;1.10;;
16531;SDS011;8378;57.698;11.958;2022-09-09T04:50:23;1.80;;;1.10;;
16531;SDS011;8378;57.698;11.958;2022-09-09T04:52:48;1.58;;;1.17;;
16531;SDS011;8378;57.698;11.958;2022-09-09T04:55:14;1.35;;;0.98;;
16531;SDS011;8378;57.698;11.958;2022-09-09T04:57:40;1.10;;;0.90;;
16531;SDS011;8378;57.698;11.958;2022-09-09T05:00:06;1.63;;;1.08;;
16531;SDS011;8378;57.698;11.958;2022-09-09T05:02:32;1.55;;;1.17;;
16531;SDS011;8378;57.698;11.958;2022-09-09T05:05:02;1.27;;;1.00;;
16531;SDS011;8378;57.698;11.958;2022-09-09T05:07:28;1.13;;;1.02;;
16531;SDS011;8378;57.698;11.958;2022-09-09T05:09:56;1.52;;;1.20;;
16531;SDS011;8378;57.698;11.958;2022-09-09T05:12:22;1.48;;;1.20;;
16531;SDS011;8378;57.698;11.958;2022-09-09T05:14:50;1.48;;;1.25;;
16531;SDS011;8378;57.698;11.958;2022-09-09T05:17:16;1.83;;;1.00;;
16531;SDS011;8378;57.698;11.958;2022-09-09T05:19:42;1.65;;;1.20;;
16531;SDS011;8378;57.698;11.958;2022-09-09T05:22:08;2.08;;;1.05;;
16531;SDS011;8378;57.698;11.958;2022-09-09T05:24:33;1.30;;;1.20;;
16531;SDS011;8378;57.698;11.958;2022-09-09T05:26:59;1.83;;;1.30;;
16531;SDS011;8378;57.698;11.958;2022-09-09T05:29:27;1.65;;;1.40;;
16531;SDS011;8378;57.698;11.958;2022-09-09T05:31:53;1.10;;;1.00;;
16531;SDS011;8378;57.698;11.958;2022-09-09T05:34:18;1.90;;;1.20;;
16531;SDS011;8378;57.698;11.958;2022-09-09T05:36:45;2.60;;;1.20;;
16531;SDS011;8378;57.698;11.958;2022-09-09T05:39:11;1.67;;;1.35;;
16531;SDS011;8378;57.698;11.958;2022-09-09T05:41:37;2.10;;;1.20;;
16531;SDS011;8378;57.698;11.958;2022-09-09T05:44:03;1.73;;;1.30;;
16531;SDS011;8378;57.698;11.958;2022-09-09T05:46:29;1.38;;;1.15;;
16531;SDS011;8378;57.698;11.958;2022-09-09T05:48:55;1.20;;;1.10;;
16531;SDS011;8378;57.698;11.958;2022-09-09T05:51:22;1.50;;;1.20;;
16531;SDS011;8378;57.698;11.958;2022-09-09T05:53:49;1.38;;;1.20;;
16531;SDS011;8378;57.698;11.958;2022-09-09T05:56:23;1.48;;;1.20;;
16531;SDS011;8378;57.698;11.958;2022-09-09T05:58:53;1.33;;;1.23;;
16531;SDS011;8378;57.698;11.958;2022-09-09T06:01:25;1.90;;;1.25;;
16531;SDS011;8378;57.698;11.958;2022-09-09T06:03:52;2.25;;;1.15;;
16531;SDS011;8378;57.698;11.958;2022-09-09T06:06:19;2.05;;;1.30;;
16531;SDS011;8378;57.698;11.958;2022-09-09T06:08:46;3.58;;;1.55;;
16531;SDS011;8378;57.698;11.958;2022-09-09T06:11:14;4.00;;;1.58;;
16531;SDS011;8378;57.698;11.958;2022-09-09T06:13:40;1.98;;;1.35;;
16531;SDS011;8378;57.698;11.958;2022-09-09T06:16:07;3.78;;;1.60;;
16531;SDS011;8378;57.698;11.958;2022-09-09T06:18:36;2.38;;;1.58;;
16531;SDS011;8378;57.698;11.958;2022-09-09T06:21:07;6.38;;;1.80;;
16531;SDS011;8378;57.698;11.958;2022-09-09T06:23:52;2.45;;;1.33;;
16531;SDS011;8378;57.698;11.958;2022-09-09T06:26:19;1.73;;;1.48;;
16531;SDS011;8378;57.698;11.958;2022-09-09T06:28:46;1.73;;;1.40;;
16531;SDS011;8378;57.698;11.958;2022-09-09T06:31:13;2.50;;;1.60;;
16531;SDS011;8378;57.698;11.958;2022-09-09T06:33:42;3.85;;;1.77;;
16531;SDS011;8378;57.698;11.958;2022-09-09T06:36:14;4.25;;;2.40;;
16531;SDS011;8378;57.698;11.958;2022-09-09T06:38:41;4.38;;;2.22;;
16531;SDS011;8378;57.698;11.958;2022-09-09T06:41:08;5.65;;;2.20;;
16531;SDS011;8378;57.698;11.958;2022-09-09T06:43:35;4.55;;;2.10;;
16531;SDS011;8378;57.698;11.958;2022-09-09T06:46:05;4.70;;;1.77;;
16531;SDS011;8378;57.698;11.958;2022-09-09T06:48:34;4.45;;;2.17;;
16531;SDS011;8378;57.698;11.958;2022-09-09T06:53:34;6.35;;;2.35;;
16531;SDS011;8378;57.698;11.958;2022-09-09T06:56:46;4.13;;;2.13;;
16531;SDS011;8378;57.698;11.958;2022-09-09T06:59:00;5.13;;;2.25;;
16531;SDS011;8378;57.698;11.958;2022-09-09T07:01:29;4.68;;;2.13;;
16531;SDS011;8378;57.698;11.958;2022-09-09T07:03:58;3.20;;;2.17;;
16531;SDS011;8378;57.698;11.958;2022-09-09T07:08:54;6.05;;;2.60;;
16531;SDS011;8378;57.698;11.958;2022-09-09T07:11:22;7.20;;;2.47;;
16531;SDS011;8378;57.698;11.958;2022-09-09T07:13:48;4.38;;;2.85;;
16531;SDS011;8378;57.698;11.958;2022-09-09T07:16:16;4.57;;;2.25;;
16531;SDS011;8378;57.698;11.958;2022-09-09T07:18:43;3.97;;;2.58;;
16531;SDS011;8378;57.698;11.958;2022-09-09T07:21:10;8.43;;;2.88;;
16531;SDS011;8378;57.698;11.958;2022-09-09T07:23:39;5.82;;;2.40;;
16531;SDS011;8378;57.698;11.958;2022-09-09T07:26:09;4.53;;;2.20;;
16531;SDS011;8378;57.698;11.958;2022-09-09T07:28:36;3.13;;;2.28;;
16531;SDS011;8378;57.698;11.958;2022-09-09T07:31:03;3.35;;;2.10;;
16531;SDS011;8378;57.698;11.958;2022-09-09T07:33:30;3.75;;;2.05;;
16531;SDS011;8378;57.698;11.958;2022-09-09T07:36:05;3.33;;;2.33;;
16531;SDS011;8378;57.698;11.958;2022-09-09T07:41:08;4.53;;;2.33;;
16531;SDS011;8378;57.698;11.958;2022-09-09T07:43:39;4.30;;;2.15;;
16531;SDS011;8378;57.698;11.958;2022-09-09T07:46:05;3.13;;;2.17;;
16531;SDS011;8378;57.698;11.958;2022-09-09T07:48:31;2.95;;;2.03;;
16531;SDS011;8378;57.698;11.958;2022-09-09T07:51:31;3.58;;;2.10;;
16531;SDS011;8378;57.698;11.958;2022-09-09T07:53:54;4.97;;;2.30;;
16531;SDS011;8378;57.698;11.958;2022-09-09T07:56:23;3.45;;;2.03;;
16531;SDS011;8378;57.698;11.958;2022-09-09T07:58:50;3.92;;;2.10;;
16531;SDS011;8378;57.698;11.958;2022-09-09T08:01:22;1.98;;;1.55;;
16531;SDS011;8378;57.698;11.958;2022-09-09T08:04:11;3.70;;;1.80;;
16531;SDS011;8378;57.698;11.958;2022-09-09T08:06:45;2.65;;;1.80;;
16531;SDS011;8378;57.698;11.958;2022-09-09T08:09:13;3.97;;;1.80;;
16531;SDS011;8378;57.698;11.958;2022-09-09T08:11:39;3.15;;;1.98;;
16531;SDS011;8378;57.698;11.958;2022-09-09T08:14:06;2.75;;;1.90;;
16531;SDS011;8378;57.698;11.958;2022-09-09T08:16:33;3.20;;;1.60;;
16531;SDS011;8378;57.698;11.958;2022-09-09T08:19:01;2.30;;;1.80;;
16531;SDS011;8378;57.698;11.958;2022-09-09T08:21:29;4.35;;;1.83;;
16531;SDS011;8378;57.698;11.958;2022-09-09T08:23:57;4.32;;;1.60;;
16531;SDS011;8378;57.698;11.958;2022-09-09T08:26:25;3.88;;;1.40;;
16531;SDS011;8378;57.698;11.958;2022-09-09T08:28:54;2.88;;;1.35;;
16531;SDS011;8378;57.698;11.958;2022-09-09T08:31:26;3.08;;;1.50;;
16531;SDS011;8378;57.698;11.958;2022-09-09T08:33:53;2.03;;;1.48;;
16531;SDS011;8378;57.698;11.958;2022-09-09T08:36:20;3.00;;;1.45;;
16531;SDS011;8378;57.698;11.958;2022-09-09T08:38:49;2.42;;;1.48;;
16531;SDS011;8378;57.698;11.958;2022-09-09T08:46:57;2.05;;;1.50;;
16531;SDS011;8378;57.698;11.958;2022-09-09T08:52:09;1.60;;;1.25;;
16531;SDS011;8378;57.698;11.958;2022-09-09T08:54:40;1.60;;;1.45;;
16531;SDS011;8378;57.698;11.958;2022-09-09T08:57:09;3.20;;;1.50;;
16531;SDS011;8378;57.698;11.958;2022-09-09T08:59:40;2.38;;;1.40;;
16531;SDS011;8378;57.698;11.958;2022-09-09T09:04:49;3.05;;;1.50;;
16531;SDS011;8378;57.698;11.958;2022-09-09T09:12:45;1.98;;;1.42;;
16531;SDS011;8378;57.698;11.958;2022-09-09T09:17:48;1.42;;;1.33;;
16531;SDS011;8378;57.698;11.958;2022-09-09T09:20:14;2.33;;;1.40;;
16531;SDS011;8378;57.698;11.958;2022-09-09T09:22:48;1.98;;;1.45;;
16531;SDS011;8378;57.698;11.958;2022-09-09T09:25:22;2.28;;;1.48;;
16531;SDS011;8378;57.698;11.958;2022-09-09T09:30:44;1.63;;;1.52;;
16531;SDS011;8378;57.698;11.958;2022-09-09T09:33:23;3.13;;;1.65;;
16531;SDS011;8378;57.698;11.958;2022-09-09T09:35:50;8.40;;;1.80;;
16531;SDS011;8378;57.698;11.958;2022-09-09T09:38:20;3.70;;;1.77;;
16531;SDS011;8378;57.698;11.958;2022-09-09T09:40:50;1.90;;;1.63;;
16531;SDS011;8378;57.698;11.958;2022-09-09T09:46:16;1.60;;;1.50;;
16531;SDS011;8378;57.698;11.958;2022-09-09T09:48:44;3.00;;;1.63;;
16531;SDS011;8378;57.698;11.958;2022-09-09T09:51:12;2.92;;;1.95;;
16531;SDS011;8378;57.698;11.958;2022-09-09T09:53:41;2.45;;;1.80;;
16531;SDS011;8378;57.698;11.958;2022-09-09T09:56:13;2.35;;;1.65;;
16531;SDS011;8378;57.698;11.958;2022-09-09T10:01:22;2.30;;;1.80;;
16531;SDS011;8378;57.698;11.958;2022-09-09T10:03:52;2.67;;;1.77;;
16531;SDS011;8378;57.698;11.958;2022-09-09T10:06:32;3.55;;;1.70;;
16531;SDS011;8378;57.698;11.958;2022-09-09T10:09:00;4.57;;;1.55;;
16531;SDS011;8378;57.698;11.958;2022-09-09T10:11:44;1.60;;;1.48;;
16531;SDS011;8378;57.698;11.958;2022-09-09T10:20:04;2.45;;;1.63;;
16531;SDS011;8378;57.698;11.958;2022-09-09T10:22:50;2.53;;;1.60;;
16531;SDS011;8378;57.698;11.958;2022-09-09T10:33:37;2.60;;;1.38;;
16531;SDS011;8378;57.698;11.958;2022-09-09T10:36:12;2.78;;;1.60;;
16531;SDS011;8378;57.698;11.958;2022-09-09T10:38:42;1.95;;;1.48;;
16531;SDS011;8378;57.698;11.958;2022-09-09T10:51:56;1.83;;;1.50;;
16531;SDS011;8378;57.698;11.958;2022-09-09T10:57:40;2.47;;;1.63;;
16531;SDS011;8378;57.698;11.958;2022-09-09T11:03:04;1.92;;;1.35;;
16531;SDS011;8378;57.698;11.958;2022-09-09T11:05:42;2.05;;;1.40;;
16531;SDS011;8378;57.698;11.958;2022-09-09T11:08:12;2.75;;;1.50;;
16531;SDS011;8378;57.698;11.958;2022-09-09T11:13:53;1.77;;;1.40;;
16531;SDS011;8378;57.698;11.958;2022-09-09T11:16:33;6.00;;;2.85;;
16531;SDS011;8378;57.698;11.958;2022-09-09T11:19:41;11.57;;;7.68;;
16531;SDS011;8378;57.698;11.958;2022-09-09T11:25:03;7.65;;;5.10;;
16531;SDS011;8378;57.698;11.958;2022-09-09T11:30:22;7.75;;;4.25;;
16531;SDS011;8378;57.698;11.958;2022-09-09T11:38:25;5.65;;;3.70;;
16531;SDS011;8378;57.698;11.958;2022-09-09T11:41:02;4.25;;;3.40;;
16531;SDS011;8378;57.698;11.958;2022-09-09T11:43:41;6.10;;;3.67;;
16531;SDS011;8378;57.698;11.958;2022-09-09T11:46:09;5.45;;;3.15;;
16531;SDS011;8378;57.698;11.958;2022-09-09T11:48:41;4.18;;;3.17;;
16531;SDS011;8378;57.698;11.958;2022-09-09T11:51:13;5.30;;;3.40;;
16531;SDS011;8378;57.698;11.958;2022-09-09T11:53:55;4.97;;;2.90;;
16531;SDS011;8378;57.698;11.958;2022-09-09T11:59:16;4.20;;;2.85;;
16531;SDS011;8378;57.698;11.958;2022-09-09T12:01:45;4.13;;;2.90;;
16531;SDS011;8378;57.698;11.958;2022-09-09T12:04:16;4.85;;;2.65;;
16531;SDS011;8378;57.698;11.958;2022-09-09T12:06:57;4.00;;;2.40;;
16531;SDS011;8378;57.698;11.958;2022-09-09T12:14:38;3.88;;;2.72;;
16531;SDS011;8378;57.698;11.958;2022-09-09T12:17:17;3.83;;;2.08;;
16531;SDS011;8378;57.698;11.958;2022-09-09T12:19:45;3.08;;;2.20;;
16531;SDS011;8378;57.698;11.958;2022-09-09T12:22:24;2.65;;;2.10;;
16531;SDS011;8378;57.698;11.958;2022-09-09T12:25:23;3.42;;;2.03;;
16531;SDS011;8378;57.698;11.958;2022-09-09T12:30:53;4.97;;;2.33;;
16531;SDS011;8378;57.698;11.958;2022-09-09T12:33:33;2.33;;;2.13;;
16531;SDS011;8378;57.698;11.958;2022-09-09T12:36:01;2.17;;;1.90;;
16531;SDS011;8378;57.698;11.958;2022-09-09T12:38:34;3.80;;;2.10;;
16531;SDS011;8378;57.698;11.958;2022-09-09T12:41:02;3.35;;;2.08;;
16531;SDS011;8378;57.698;11.958;2022-09-09T12:43:28;2.50;;;1.95;;
16531;SDS011;8378;57.698;11.958;2022-09-09T12:46:03;4.20;;;1.75;;
16531;SDS011;8378;57.698;11.958;2022-09-09T12:48:38;3.35;;;2.00;;
16531;SDS011;8378;57.698;11.958;2022-09-09T12:51:19;2.22;;;1.83;;
16531;SDS011;8378;57.698;11.958;2022-09-09T12:53:51;2.35;;;1.83;;
16531;SDS011;8378;57.698;11.958;2022-09-09T12:56:20;3.20;;;2.10;;
16531;SDS011;8378;57.698;11.958;2022-09-09T12:58:50;2.92;;;1.88;;
16531;SDS011;8378;57.698;11.958;2022-09-09T13:01:23;3.30;;;2.08;;
16531;SDS011;8378;57.698;11.958;2022-09-09T13:03:50;3.00;;;1.80;;
16531;SDS011;8378;57.698;11.958;2022-09-09T13:06:24;4.30;;;1.80;;
16531;SDS011;8378;57.698;11.958;2022-09-09T13:08:54;2.35;;;1.80;;
16531;SDS011;8378;57.698;11.958;2022-09-09T13:11:30;2.92;;;1.88;;
16531;SDS011;8378;57.698;11.958;2022-09-09T13:14:01;3.08;;;1.80;;
16531;SDS011;8378;57.698;11.958;2022-09-09T13:19:00;2.65;;;1.52;;
16531;SDS011;8378;57.698;11.958;2022-09-09T13:21:35;1.88;;;1.60;;
16531;SDS011;8378;57.698;11.958;2022-09-09T13:24:05;1.73;;;1.48;;
16531;SDS011;8378;57.698;11.958;2022-09-09T13:26:53;2.28;;;1.80;;
16531;SDS011;8378;57.698;11.958;2022-09-09T13:29:21;2.70;;;1.50;;
16531;SDS011;8378;57.698;11.958;2022-09-09T13:31:47;3.05;;;1.80;;
16531;SDS011;8378;57.698;11.958;2022-09-09T13:34:29;3.78;;;1.90;;
16531;SDS011;8378;57.698;11.958;2022-09-09T13:37:07;2.45;;;1.90;;
16531;SDS011;8378;57.698;11.958;2022-09-09T13:40:02;2.10;;;1.88;;
16531;SDS011;8378;57.698;11.958;2022-09-09T13:42:31;1.80;;;1.60;;
16531;SDS011;8378;57.698;11.958;2022-09-09T13:45:00;1.80;;;1.50;;
16531;SDS011;8378;57.698;11.958;2022-09-09T13:47:32;3.40;;;1.70;;
16531;SDS011;8378;57.698;11.958;2022-09-09T13:50:18;2.25;;;1.60;;
16531;SDS011;8378;57.698;11.958;2022-09-09T13:52:44;2.10;;;1.52;;
16531;SDS011;8378;57.698;11.958;2022-09-09T13:55:12;3.33;;;1.60;;
16531;SDS011;8378;57.698;11.958;2022-09-09T13:57:38;2.70;;;1.70;;
16531;SDS011;8378;57.698;11.958;2022-09-09T14:00:04;1.65;;;1.50;;
16531;SDS011;8378;57.698;11.958;2022-09-09T14:02:32;1.77;;;1.60;;
16531;SDS011;8378;57.698;11.958;2022-09-09T14:04:58;2.72;;;1.50;;
16531;SDS011;8378;57.698;11.958;2022-09-09T14:07:27;3.35;;;1.75;;
16531;SDS011;8378;57.698;11.958;2022-09-09T14:09:53;2.55;;;2.00;;
16531;SDS011;8378;57.698;11.958;2022-09-09T14:12:19;2.85;;;1.92;;
16531;SDS011;8378;57.698;11.958;2022-09-09T14:14:45;3.80;;;1.92;;
16531;SDS011;8378;57.698;11.958;2022-09-09T14:17:10;2.78;;;1.80;;
16531;SDS011;8378;57.698;11.958;2022-09-09T14:19:36;3.38;;;1.83;;
16531;SDS011;8378;57.698;11.958;2022-09-09T14:22:04;5.63;;;1.88;;
16531;SDS011;8378;57.698;11.958;2022-09-09T14:24:30;3.78;;;2.28;;
16531;SDS011;8378;57.698;11.958;2022-09-09T14:26:55;3.70;;;2.42;;
16531;SDS011;8378;57.698;11.958;2022-09-09T14:29:21;4.03;;;2.20;;
16531;SDS011;8378;57.698;11.958;2022-09-09T14:31:47;4.18;;;2.40;;
16531;SDS011;8378;57.698;11.958;2022-09-09T14:34:12;4.22;;;2.13;;
16531;SDS011;8378;57.698;11.958;2022-09-09T14:36:39;4.82;;;2.33;;
16531;SDS011;8378;57.698;11.958;2022-09-09T14:39:06;2.55;;;1.70;;
16531;SDS011;8378;57.698;11.958;2022-09-09T14:41:32;2.92;;;1.90;;
16531;SDS011;8378;57.698;11.958;2022-09-09T14:43:58;2.70;;;1.80;;
16531;SDS011;8378;57.698;11.958;2022-09-09T14:46:24;5.20;;;3.10;;
16531;SDS011;8378;57.698;11.958;2022-09-09T14:48:51;8.07;;;3.60;;
16531;SDS011;8378;57.698;11.958;2022-09-09T14:51:18;5.50;;;3.58;;
16531;SDS011;8378;57.698;11.958;2022-09-09T14:53:47;6.05;;;3.10;;
16531;SDS011;8378;57.698;11.958;2022-09-09T14:56:16;4.15;;;2.35;;
16531;SDS011;8378;57.698;11.958;2022-09-09T14:58:43;4.20;;;2.30;;
16531;SDS011;8378;57.698;11.958;2022-09-09T15:01:14;3.10;;;2.10;;
16531;SDS011;8378;57.698;11.958;2022-09-09T15:03:41;4.55;;;2.25;;
16531;SDS011;8378;57.698;11.958;2022-09-09T15:06:09;2.47;;;1.88;;
16531;SDS011;8378;57.698;11.958;2022-09-09T15:08:37;3.70;;;2.35;;
16531;SDS011;8378;57.698;11.958;2022-09-09T15:11:04;4.85;;;2.05;;
16531;SDS011;8378;57.698;11.958;2022-09-09T15:13:32;2.30;;;1.90;;
16531;SDS011;8378;57.698;11.958;2022-09-09T15:16:15;5.05;;;1.92;;
16531;SDS011;8378;57.698;11.958;2022-09-09T15:18:42;2.30;;;1.73;;
16531;SDS011;8378;57.698;11.958;2022-09-09T15:21:13;3.15;;;1.92;;
16531;SDS011;8378;57.698;11.958;2022-09-09T15:23:41;2.10;;;1.60;;
16531;SDS011;8378;57.698;11.958;2022-09-09T15:26:08;3.92;;;1.90;;
16531;SDS011;8378;57.698;11.958;2022-09-09T15:28:35;2.67;;;1.90;;
16531;SDS011;8378;57.698;11.958;2022-09-09T15:31:07;2.60;;;1.55;;
16531;SDS011;8378;57.698;11.958;2022-09-09T15:33:37;2.38;;;1.50;;
16531;SDS011;8378;57.698;11.958;2022-09-09T15:38:51;2.30;;;1.60;;
16531;SDS011;8378;57.698;11.958;2022-09-09T15:41:18;9.98;;;3.80;;
16531;SDS011;8378;57.698;11.958;2022-09-09T15:43:46;7.60;;;4.60;;
16531;SDS011;8378;57.698;11.958;2022-09-09T15:46:22;6.60;;;4.40;;
16531;SDS011;8378;57.698;11.958;2022-09-09T15:49:18;7.53;;;4.30;;
16531;SDS011;8378;57.698;11.958;2022-09-09T15:51:53;5.60;;;3.55;;
16531;SDS011;8378;57.698;11.958;2022-09-09T15:54:24;7.70;;;3.63;;
16531;SDS011;8378;57.698;11.958;2022-09-09T15:56:52;4.35;;;3.35;;
16531;SDS011;8378;57.698;11.958;2022-09-09T15:59:20;4.88;;;3.13;;
16531;SDS011;8378;57.698;11.958;2022-09-09T16:01:47;4.63;;;3.13;;
16531;SDS011;8378;57.698;11.958;2022-09-09T16:04:16;3.72;;;2.55;;
16531;SDS011;8378;57.698;11.958;2022-09-09T16:06:48;3.35;;;2.38;;
16531;SDS011;8378;57.698;11.958;2022-09-09T16:09:15;3.53;;;2.42;;
16531;SDS011;8378;57.698;11.958;2022-09-09T16:11:40;3.97;;;2.83;;
16531;SDS011;8378;57.698;11.958;2022-09-09T16:14:06;3.78;;;2.45;;
16531;SDS011;8378;57.698;11.958;2022-09-09T16:16:32;4.68;;;2.33;;
16531;SDS011;8378;57.698;11.958;2022-09-09T16:18:58;3.10;;;2.42;;
16531;SDS011;8378;57.698;11.958;2022-09-09T16:21:30;4.43;;;2.20;;
16531;SDS011;8378;57.698;11.958;2022-09-09T16:24:01;2.63;;;2.20;;
16531;SDS011;8378;57.698;11.958;2022-09-09T16:26:28;2.72;;;2.10;;
16531;SDS011;8378;57.698;11.958;2022-09-09T16:28:55;2.92;;;1.98;;
16531;SDS011;8378;57.698;11.958;2022-09-09T16:31:22;2.60;;;2.10;;
16531;SDS011;8378;57.698;11.958;2022-09-09T16:33:48;2.95;;;2.05;;
16531;SDS011;8378;57.698;11.958;2022-09-09T16:36:16;3.00;;;1.88;;
16531;SDS011;8378;57.698;11.958;2022-09-09T16:38:43;3.38;;;2.00;;
16531;SDS011;8378;57.698;11.958;2022-09-09T16:41:10;3.67;;;1.90;;
16531;SDS011;8378;57.698;11.958;2022-09-09T16:43:37;2.30;;;1.80;;
16531;SDS011;8378;57.698;11.958;2022-09-09T16:46:03;2.20;;;1.85;;
16531;SDS011;8378;57.698;11.958;2022-09-09T16:48:37;2.65;;;1.92;;
16531;SDS011;8378;57.698;11.958;2022-09-09T16:51:06;2.88;;;1.92;;
16531;SDS011;8378;57.698;11.958;2022-09-09T16:53:35;1.90;;;1.70;;
16531;SDS011;8378;57.698;11.958;2022-09-09T16:56:07;3.08;;;2.00;;
16531;SDS011;8378;57.698;11.958;2022-09-09T16:58:34;1.95;;;1.52;;
16531;SDS011;8378;57.698;11.958;2022-09-09T17:01:00;3.00;;;2.13;;
16531;SDS011;8378;57.698;11.958;2022-09-09T17:03:29;2.53;;;1.70;;
16531;SDS011;8378;57.698;11.958;2022-09-09T17:05:56;1.92;;;1.63;;
16531;SDS011;8378;57.698;11.958;2022-09-09T17:08:23;1.88;;;1.67;;
16531;SDS011;8378;57.698;11.958;2022-09-09T17:10:49;2.90;;;1.70;;
16531;SDS011;8378;57.698;11.958;2022-09-09T17:13:15;2.03;;;1.63;;
16531;SDS011;8378;57.698;11.958;2022-09-09T17:15:44;1.80;;;1.70;;
16531;SDS011;8378;57.698;11.958;2022-09-09T17:18:10;1.95;;;1.70;;
16531;SDS011;8378;57.698;11.958;2022-09-09T17:20:40;1.90;;;1.58;;
16531;SDS011;8378;57.698;11.958;2022-09-09T17:23:07;3.72;;;2.08;;
16531;SDS011;8378;57.698;11.958;2022-09-09T17:25:34;2.00;;;1.63;;
16531;SDS011;8378;57.698;11.958;2022-09-09T17:28:01;2.17;;;1.58;;